createdAt,value
2017-07-14T05:19:27.969Z,13.1
2017-07-14T07:05:28.717Z,16.2
2017-07-14T07:06:30.762Z,16.2
2017-07-14T07:07:32.647Z,16.3
2017-07-14T07:08:34.431Z,16.3
2017-07-14T07:09:36.087Z,16.3
2017-07-14T07:10:37.781Z,16.3
2017-07-14T07:11:39.639Z,16.3
2017-07-14T07:12:41.451Z,16.3
2017-07-14T07:13:43.299Z,16.5
2017-07-14T07:14:45.050Z,16.4
2017-07-14T07:15:46.763Z,16.3
2017-07-14T07:16:48.517Z,16.3
2017-07-14T07:17:50.221Z,16.5
2017-07-14T07:18:51.938Z,16.5
2017-07-14T07:19:53.605Z,16.5
2017-07-14T07:20:55.494Z,16.6
2017-07-14T07:21:57.238Z,16.6
2017-07-14T07:22:59.303Z,16.5
2017-07-14T07:24:01.070Z,16.5
2017-07-14T07:25:02.915Z,16.5
2017-07-14T07:26:04.574Z,16.5
2017-07-14T07:27:06.281Z,16.5
2017-07-14T07:28:07.930Z,16.6
2017-07-14T07:29:09.549Z,16.6
2017-07-14T07:30:11.260Z,16.7
2017-07-14T07:31:13.072Z,16.8
2017-07-14T07:32:14.595Z,16.9
2017-07-14T07:33:16.225Z,17.0
2017-07-14T09:20:05.989Z,20.7
2017-07-14T09:21:07.880Z,20.8
2017-07-14T09:22:09.686Z,20.8
2017-07-14T09:23:11.586Z,20.9
2017-07-14T09:24:13.275Z,21.1
2017-07-14T09:25:15.095Z,21.1
2017-07-14T09:26:16.880Z,21.3
2017-07-14T09:27:18.649Z,21.4
2017-07-14T09:28:20.382Z,21.4
2017-07-14T09:29:22.211Z,21.5
2017-07-14T09:36:06.861Z,22.1
2017-07-14T09:37:09.771Z,22.2
2017-07-14T09:38:11.535Z,22.1
2017-07-14T09:39:13.442Z,22.0
2017-07-14T09:40:15.184Z,22.0
2017-07-14T09:41:17.060Z,22.0
2017-07-14T09:42:18.801Z,22.1
2017-07-14T09:43:22.677Z,22.1
2017-07-14T09:44:24.394Z,22.2
2017-07-14T09:45:27.246Z,22.3
2017-07-14T09:46:28.958Z,22.4
2017-07-14T09:47:32.912Z,22.6
2017-07-14T09:48:34.750Z,22.8
2017-07-14T09:49:36.665Z,22.9
2017-07-14T09:50:38.397Z,23.0
2017-07-14T09:51:40.194Z,23.1
2017-07-14T09:52:41.944Z,23.2
2017-07-14T09:53:43.792Z,23.4
2017-07-14T09:54:45.599Z,23.4
2017-07-14T09:55:47.390Z,23.3
2017-07-14T09:56:49.206Z,23.5
2017-07-14T09:57:50.953Z,23.6
2017-07-14T09:58:52.734Z,23.9
2017-07-14T09:59:54.547Z,24.1
2017-07-14T10:00:56.309Z,24.1
2017-07-14T10:01:58.119Z,24.2
2017-07-14T10:02:59.829Z,24.2
2017-07-14T10:04:01.523Z,24.1
2017-07-14T10:05:03.246Z,23.9
2017-07-14T10:06:05.992Z,23.8
2017-07-14T10:07:07.720Z,23.7
2017-07-14T10:08:09.502Z,23.7
2017-07-14T10:09:11.259Z,23.6
2017-07-14T10:10:13.996Z,23.7
2017-07-14T10:11:15.795Z,23.5
2017-07-14T10:12:17.665Z,23.6
2017-07-14T10:13:19.449Z,23.5
2017-07-14T10:14:21.282Z,23.6
2017-07-14T10:15:23.003Z,23.7
2017-07-14T10:16:40.413Z,23.6
2017-07-14T10:17:42.225Z,23.7
2017-07-14T10:18:44.043Z,23.7
2017-07-14T10:19:45.851Z,23.8
2017-07-14T10:20:44.968Z,23.7
2017-07-14T10:21:53.567Z,23.8
2017-07-14T10:22:55.315Z,23.8
2017-07-14T10:23:57.135Z,23.9
2017-07-14T10:24:58.898Z,24.0
2017-07-14T10:26:00.677Z,23.8
2017-07-14T10:27:02.396Z,23.8
2017-07-14T10:28:04.240Z,23.6
2017-07-14T10:29:06.311Z,23.5
2017-07-14T10:30:08.052Z,23.4
2017-07-14T10:31:09.821Z,23.4
2017-07-14T10:32:11.640Z,23.5
2017-07-14T10:33:13.390Z,23.4
2017-07-14T10:34:15.250Z,23.3
2017-07-14T10:35:17.026Z,23.2
2017-07-14T10:36:18.803Z,23.1
2017-07-14T10:37:20.500Z,23.1
2017-07-14T10:38:22.292Z,23.2
2017-07-14T10:39:24.026Z,23.3
2017-07-14T10:40:25.829Z,23.2
2017-07-14T10:41:27.562Z,23.5
2017-07-14T10:42:29.401Z,23.6
2017-07-14T10:43:31.193Z,23.7
2017-07-14T10:44:32.950Z,23.9
2017-07-14T10:45:34.558Z,23.8
2017-07-14T10:46:36.359Z,23.9
2017-07-14T10:47:38.045Z,24.0
2017-07-14T10:48:39.866Z,23.9
2017-07-14T10:49:41.618Z,23.8
2017-07-14T10:50:43.413Z,23.9
2017-07-14T10:51:45.175Z,23.8
2017-07-14T10:52:47.061Z,23.9
2017-07-14T10:53:48.805Z,24.0
2017-07-14T10:54:50.647Z,24.1
2017-07-14T10:55:52.243Z,24.2
2017-07-14T10:56:54.060Z,24.3
2017-07-14T10:57:55.847Z,24.2
2017-07-14T10:58:57.628Z,24.4
2017-07-14T10:59:59.403Z,24.3
2017-07-14T11:01:01.144Z,24.3
2017-07-14T11:02:02.873Z,24.3
2017-07-14T11:03:04.682Z,24.3
2017-07-14T11:04:06.404Z,24.3
2017-07-14T11:05:08.668Z,24.2
2017-07-14T11:06:10.392Z,24.1
2017-07-14T11:07:12.300Z,23.9
2017-07-14T11:08:14.009Z,23.8
2017-07-14T11:09:15.991Z,23.6
2017-07-14T11:10:17.677Z,23.5
2017-07-14T11:11:19.787Z,23.5
2017-07-14T11:12:21.423Z,23.2
2017-07-14T11:13:23.173Z,23.4
2017-07-14T11:14:24.841Z,23.4
2017-07-14T11:15:26.593Z,23.5
2017-07-14T11:16:28.195Z,23.6
2017-07-14T11:17:30.003Z,23.6
2017-07-14T11:18:31.683Z,23.7
2017-07-14T11:19:33.351Z,23.6
2017-07-14T11:20:35.022Z,23.6
2017-07-14T11:21:36.705Z,23.4
2017-07-14T11:22:38.410Z,23.3
2017-07-14T11:23:40.155Z,23.1
2017-07-14T11:24:41.893Z,22.9
2017-07-14T11:25:43.594Z,22.8
2017-07-14T11:26:45.297Z,22.7
2017-07-14T11:27:46.895Z,22.5
2017-07-14T11:28:48.683Z,22.3
2017-07-14T11:29:50.348Z,22.2
2017-07-14T11:30:52.402Z,22.1
2017-07-14T11:31:54.419Z,22.0
2017-07-14T11:32:56.189Z,22.1
2017-07-14T11:33:57.799Z,22.2
2017-07-14T11:34:59.577Z,22.1
2017-07-14T11:36:01.183Z,22.1
2017-07-14T11:37:02.979Z,22.1
2017-07-14T11:38:04.578Z,22.1
2017-07-14T11:39:06.395Z,22.1
2017-07-14T11:40:08.077Z,22.0
2017-07-14T11:41:09.817Z,22.0
2017-07-14T11:42:11.495Z,22.0
2017-07-14T11:43:13.175Z,22.0
2017-07-14T11:44:14.853Z,22.0
2017-07-14T11:45:16.650Z,21.9
2017-07-14T11:46:18.359Z,22.0
2017-07-14T11:47:20.176Z,22.0
2017-07-14T11:48:22.107Z,22.1
2017-07-14T11:49:23.839Z,22.3
2017-07-14T11:50:25.500Z,22.3
2017-07-14T11:51:27.618Z,22.4
2017-07-14T11:52:29.304Z,22.4
2017-07-14T11:53:31.028Z,22.5
2017-07-14T11:54:32.695Z,22.5
2017-07-14T11:55:34.888Z,22.4
2017-07-14T11:56:36.558Z,22.5
2017-07-14T11:57:38.272Z,22.5
2017-07-14T11:58:39.941Z,22.6
2017-07-14T11:59:41.734Z,22.6
2017-07-14T12:00:43.407Z,22.5
2017-07-14T12:01:45.162Z,22.6
2017-07-14T12:02:46.832Z,22.6
2017-07-14T12:03:48.606Z,22.7
2017-07-14T12:04:50.264Z,22.8
2017-07-14T12:05:52.008Z,22.8
2017-07-14T12:06:53.613Z,22.8
2017-07-14T12:07:55.401Z,22.8
2017-07-14T12:08:57.087Z,22.7
2017-07-14T12:09:58.816Z,22.6
2017-07-14T12:11:00.478Z,22.7
2017-07-14T12:12:02.178Z,22.7
2017-07-14T12:13:03.849Z,22.6
2017-07-14T12:14:05.589Z,22.6
2017-07-14T12:15:07.254Z,22.7
2017-07-14T12:16:08.958Z,22.6
2017-07-14T12:17:10.636Z,22.7
2017-07-14T12:18:12.288Z,22.7
2017-07-14T12:19:13.996Z,22.7
2017-07-14T12:20:20.536Z,22.5
2017-07-14T12:21:22.246Z,22.4
2017-07-14T12:22:24.950Z,22.3
2017-07-14T12:23:26.630Z,22.3
2017-07-14T12:24:28.368Z,22.2
2017-07-14T12:25:30.088Z,22.1
2017-07-14T12:26:31.874Z,22.1
2017-07-14T12:27:33.541Z,22.2
2017-07-14T12:28:35.262Z,22.1
2017-07-14T12:29:36.997Z,22.0
2017-07-14T12:30:38.969Z,22.1
2017-07-14T12:31:40.934Z,22.0
2017-07-14T12:32:42.667Z,22.0
2017-07-14T12:33:44.353Z,21.8
2017-07-14T12:34:46.096Z,21.7
2017-07-14T12:35:47.774Z,21.7
2017-07-14T14:52:49.744Z,18.2
2017-07-14T14:53:51.646Z,18.0
2017-07-14T14:54:53.357Z,18.0
2017-07-14T14:55:55.113Z,17.9
2017-07-14T14:56:57.003Z,17.7
2017-07-14T14:57:58.693Z,17.6
2017-07-14T14:59:00.339Z,17.6
2017-07-14T15:00:02.493Z,17.5
2017-07-14T15:01:04.138Z,17.4
2017-07-14T15:02:05.961Z,17.2
2017-07-14T15:03:08.394Z,17.2
2017-07-14T15:04:10.495Z,17.1
2017-07-14T15:05:12.191Z,17.1
2017-07-14T15:06:15.013Z,17.0
2017-07-14T15:07:16.794Z,17.0
2017-07-14T15:08:18.523Z,17.0
2017-07-14T15:09:20.560Z,17.0
2017-07-14T15:10:22.737Z,17.0
2017-07-14T15:11:24.418Z,16.9
2017-07-14T15:12:26.115Z,16.9
2017-07-14T15:13:27.775Z,17.0
2017-07-14T15:14:29.657Z,16.9
2017-07-14T15:15:31.316Z,17.0
2017-07-14T15:16:33.031Z,17.1
2017-07-14T15:17:34.703Z,17.0
2017-07-14T15:18:36.397Z,17.1
2017-07-14T15:19:38.095Z,17.1
2017-07-14T15:20:39.817Z,17.1
2017-07-14T15:21:41.487Z,17.1
2017-07-14T15:22:43.647Z,17.1
2017-07-14T15:23:45.733Z,17.0
2017-07-14T15:24:47.419Z,17.0
2017-07-14T15:25:49.116Z,17.0
2017-07-14T15:26:50.960Z,17.0
2017-07-14T15:27:53.194Z,16.9
2017-07-14T15:28:55.379Z,17.0
2017-07-14T15:29:57.935Z,16.9
2017-07-14T15:31:00.243Z,16.9
2017-07-14T15:32:03.127Z,16.9
2017-07-14T15:33:04.922Z,16.9
2017-07-14T15:34:07.167Z,16.8
2017-07-14T15:35:08.989Z,16.9
2017-07-14T15:36:12.451Z,17.0
2017-07-14T15:37:14.280Z,17.0
2017-07-14T15:38:16.274Z,16.9
2017-07-14T15:39:18.177Z,17.1
2017-07-14T15:40:24.974Z,17.2
2017-07-14T15:41:27.285Z,17.4
2017-07-14T15:42:29.111Z,17.6
2017-07-14T15:43:30.978Z,17.7
2017-07-14T15:44:32.796Z,17.8
2017-07-14T15:45:34.627Z,17.9
2017-07-14T15:46:36.400Z,17.9
2017-07-14T15:47:38.200Z,17.7
2017-07-14T15:48:39.881Z,17.6
2017-07-14T15:49:41.684Z,17.5
2017-07-14T15:50:44.172Z,17.4
2017-07-14T15:51:46.018Z,17.2
2017-07-14T15:52:47.766Z,17.3
2017-07-14T15:53:50.447Z,17.2
2017-07-14T15:54:52.325Z,17.1
2017-07-14T15:55:55.623Z,17.1
2017-07-14T15:56:58.663Z,17.0
2017-07-14T15:58:01.096Z,17.1
2017-07-14T15:59:03.014Z,17.1
2017-07-14T16:00:04.928Z,17.1
2017-07-14T16:01:06.870Z,17.2
2017-07-14T16:02:09.866Z,17.3
2017-07-14T16:03:12.081Z,17.3
2017-07-14T16:04:14.133Z,17.5
2017-07-14T16:05:15.989Z,17.5
2017-07-14T16:06:18.013Z,17.7
2017-07-14T16:07:19.899Z,17.8
2017-07-14T16:08:21.822Z,17.9
2017-07-14T16:09:24.126Z,18.2
2017-07-14T16:10:26.755Z,18.4
2017-07-14T16:11:30.214Z,18.6
2017-07-14T16:12:32.911Z,18.7
2017-07-14T16:13:35.549Z,18.7
2017-07-14T16:14:37.367Z,18.7
2017-07-14T16:15:39.381Z,18.7
2017-07-14T16:16:41.244Z,18.7
2017-07-14T16:17:43.076Z,18.7
2017-07-14T16:18:44.934Z,18.8
2017-07-14T16:19:46.686Z,18.7
2017-07-14T16:20:48.417Z,18.6
2017-07-14T16:21:50.144Z,18.6
2017-07-14T16:22:51.847Z,18.6
2017-07-14T16:23:54.125Z,18.4
2017-07-14T16:24:56.255Z,18.3
2017-07-14T16:25:58.793Z,18.2
2017-07-14T16:27:00.514Z,18.2
2017-07-14T16:28:02.700Z,18.0
2017-07-14T16:29:04.386Z,18.0
2017-07-14T16:30:06.098Z,17.9
2017-07-14T16:31:07.845Z,17.9
2017-07-14T16:32:09.603Z,18.0
2017-07-14T16:33:11.689Z,18.0
2017-07-14T16:34:13.566Z,18.1
2017-07-14T16:35:15.297Z,18.1
2017-07-14T16:36:17.191Z,18.2
2017-07-14T16:37:18.998Z,18.2
2017-07-14T16:38:20.819Z,18.3
2017-07-14T16:39:22.598Z,18.5
2017-07-14T16:40:24.527Z,18.5
2017-07-14T16:41:26.308Z,18.7
2017-07-14T16:42:28.186Z,18.8
2017-07-14T16:43:30.788Z,18.7
2017-07-14T16:44:33.078Z,18.8
2017-07-14T16:45:34.861Z,18.8
2017-07-14T16:46:37.127Z,18.8
2017-07-14T16:47:38.843Z,18.7
2017-07-14T16:48:41.722Z,18.8
2017-07-14T16:49:43.487Z,18.8
2017-07-14T16:50:45.308Z,18.8
2017-07-14T16:51:47.128Z,18.8
2017-07-14T16:52:48.893Z,18.8
2017-07-14T16:53:50.675Z,18.8
2017-07-14T16:54:52.534Z,18.9
2017-07-14T16:55:54.299Z,19.0
2017-07-14T16:56:56.108Z,19.0
2017-07-14T16:57:57.882Z,19.1
2017-07-14T16:58:59.629Z,19.1
2017-07-14T17:00:01.725Z,19.2
2017-07-14T17:01:03.565Z,19.2
2017-07-14T17:02:05.270Z,19.3
2017-07-14T17:03:07.095Z,19.3
2017-07-14T17:04:08.788Z,19.3
2017-07-14T17:05:10.569Z,19.3
2017-07-14T17:06:12.254Z,19.2
2017-07-14T17:07:14.030Z,19.1
2017-07-14T17:08:15.728Z,19.1
2017-07-14T17:09:17.498Z,19.1
2017-07-14T17:10:19.183Z,18.9
2017-07-14T17:11:22.915Z,18.9
2017-07-14T17:12:24.559Z,18.8
2017-07-14T17:13:26.310Z,18.8
2017-07-14T17:14:27.955Z,18.5
2017-07-14T17:15:29.684Z,18.4
2017-07-14T17:16:31.334Z,18.2
2017-07-14T17:17:33.073Z,18.2
2017-07-14T17:18:34.723Z,18.0
2017-07-14T17:19:37.509Z,17.9
2017-07-14T17:20:39.178Z,17.9
2017-07-14T17:21:40.884Z,17.7
2017-07-14T17:22:42.553Z,17.8
2017-07-14T17:23:44.275Z,17.7
2017-07-14T17:24:45.928Z,17.7
2017-07-14T17:25:47.767Z,17.6
2017-07-14T17:26:49.424Z,17.6
2017-07-14T17:27:51.164Z,17.5
2017-07-14T17:28:52.911Z,17.5
2017-07-14T17:29:54.697Z,17.4
2017-07-14T17:30:56.360Z,17.3
2017-07-14T17:31:59.220Z,17.2
2017-07-14T17:33:00.872Z,17.2
2017-07-14T17:34:02.915Z,17.1
2017-07-14T17:35:04.563Z,17.1
2017-07-14T17:36:06.271Z,17.1
2017-07-14T17:37:07.918Z,16.9
2017-07-14T17:38:09.699Z,17.0
2017-07-14T17:39:11.350Z,17.0
2017-07-14T17:40:13.091Z,16.8
2017-07-14T17:41:14.791Z,17.0
2017-07-14T17:42:16.566Z,16.9
2017-07-14T17:43:18.235Z,16.8
2017-07-14T17:44:19.935Z,16.8
2017-07-14T17:45:21.745Z,16.7
2017-07-14T17:46:23.467Z,16.6
2017-07-14T17:47:26.238Z,16.6
2017-07-14T17:48:27.995Z,16.4
2017-07-14T17:49:29.749Z,16.3
2017-07-14T17:50:31.461Z,16.3
2017-07-14T17:51:33.224Z,16.2
2017-07-14T17:52:34.911Z,16.2
2017-07-14T17:53:36.705Z,16.1
2017-07-14T17:54:38.346Z,16.1
2017-07-14T17:55:40.519Z,16.2
2017-07-14T17:56:42.191Z,16.1
2017-07-14T17:57:43.938Z,16.1
2017-07-14T17:58:45.642Z,16.2
2017-07-14T17:59:47.289Z,16.1
2017-07-14T18:00:48.963Z,16.1
2017-07-14T18:01:50.684Z,16.1
2017-07-14T18:02:52.335Z,16.1
2017-07-14T18:03:54.094Z,16.1
2017-07-14T18:04:55.747Z,16.2
2017-07-14T18:05:57.490Z,16.2
2017-07-14T18:06:59.132Z,16.1
2017-07-14T18:08:00.908Z,16.1
2017-07-14T18:09:02.560Z,16.2
2017-07-14T18:10:04.214Z,16.2
2017-07-14T18:11:06.004Z,16.1
2017-07-14T18:12:07.930Z,16.2
2017-07-14T18:13:09.722Z,16.1
2017-07-14T18:14:11.370Z,16.2
2017-07-14T18:15:13.029Z,16.2
2017-07-14T18:16:15.753Z,16.2
2017-07-14T18:17:17.445Z,16.2
2017-07-14T18:18:19.150Z,16.3
2017-07-14T18:19:20.821Z,16.3
2017-07-14T18:20:22.609Z,16.2
2017-07-14T18:21:24.279Z,16.3
2017-07-14T18:22:26.070Z,16.2
2017-07-14T18:23:28.130Z,16.1
2017-07-14T18:24:29.835Z,16.2
2017-07-14T18:25:31.992Z,16.1
2017-07-14T18:26:33.728Z,16.1
2017-07-14T18:27:36.049Z,16.1
2017-07-14T18:28:37.673Z,16.0
2017-07-14T18:29:40.461Z,16.1
2017-07-14T18:30:42.160Z,16.1
2017-07-14T18:31:44.710Z,16.1
2017-07-14T18:32:46.762Z,16.0
2017-07-14T18:33:49.359Z,16.0
2017-07-14T18:34:51.032Z,16.0
2017-07-14T18:35:52.781Z,16.0
2017-07-14T18:36:54.454Z,16.0
2017-07-14T18:37:56.139Z,16.0
2017-07-14T18:38:57.787Z,16.1
2017-07-14T18:39:59.634Z,16.0
2017-07-14T18:41:01.326Z,16.0
2017-07-14T18:42:03.037Z,16.0
2017-07-14T18:43:04.716Z,16.0
2017-07-14T18:44:06.440Z,15.9
2017-07-14T18:45:08.089Z,16.0
2017-07-14T18:46:09.829Z,15.9
2017-07-14T18:47:11.524Z,15.9
2017-07-14T18:48:13.335Z,15.9
2017-07-14T18:49:15.011Z,15.9
2017-07-14T18:50:16.834Z,15.8
2017-07-14T18:51:18.920Z,15.8
2017-07-14T18:52:20.583Z,15.8
2017-07-14T18:53:22.264Z,15.8
2017-07-14T18:54:24.053Z,15.8
2017-07-14T18:55:25.711Z,15.8
2017-07-14T18:56:27.509Z,15.7
2017-07-14T18:57:29.186Z,15.7
2017-07-14T18:58:30.992Z,15.7
2017-07-14T18:59:32.666Z,15.6
2017-07-14T19:00:34.411Z,15.6
2017-07-14T19:01:36.090Z,15.5
2017-07-14T19:02:38.001Z,15.5
2017-07-14T19:03:39.660Z,15.5
2017-07-14T19:04:42.440Z,15.4
2017-07-14T19:05:44.108Z,15.3
2017-07-14T19:06:45.888Z,15.3
2017-07-14T19:07:47.649Z,15.2
2017-07-14T19:08:49.314Z,15.1
2017-07-14T19:09:51.443Z,15.1
2017-07-14T19:10:53.085Z,15.0
2017-07-14T19:11:54.864Z,15.0
2017-07-14T19:12:57.356Z,15.0
2017-07-14T19:13:59.151Z,14.9
2017-07-14T19:15:00.791Z,14.9
2017-07-14T19:16:02.521Z,14.9
2017-07-14T19:17:04.171Z,14.8
2017-07-14T19:18:05.889Z,14.8
2017-07-14T19:19:07.559Z,14.8
2017-07-14T19:20:09.238Z,14.7
2017-07-14T19:21:10.874Z,14.7
2017-07-14T19:22:12.580Z,14.7
2017-07-14T19:23:14.232Z,14.7
2017-07-14T19:24:15.990Z,14.7
2017-07-14T19:25:17.638Z,14.5
2017-07-14T19:26:19.357Z,14.6
2017-07-14T19:27:21.000Z,14.5
2017-07-14T19:28:22.753Z,14.6
2017-07-14T19:29:24.412Z,14.5
2017-07-14T19:30:32.807Z,14.5
2017-07-14T19:31:34.458Z,14.5
2017-07-14T19:32:40.807Z,14.4
2017-07-14T19:33:42.852Z,14.4
2017-07-14T19:34:44.500Z,14.4
2017-07-14T19:35:46.150Z,14.4
2017-07-14T19:36:47.802Z,14.3
2017-07-14T19:37:49.959Z,14.3
2017-07-14T19:38:52.406Z,14.3
2017-07-14T19:39:54.964Z,14.3
2017-07-14T19:40:57.021Z,14.3
2017-07-14T19:41:58.792Z,14.2
2017-07-14T19:43:02.056Z,14.3
2017-07-14T19:44:03.699Z,14.2
2017-07-14T19:45:05.860Z,14.2
2017-07-14T19:46:07.533Z,14.2
2017-07-14T19:47:09.579Z,14.2
2017-07-14T19:48:11.744Z,14.1
2017-07-14T19:49:13.416Z,14.2
2017-07-14T19:50:15.124Z,14.2
2017-07-14T19:51:16.783Z,14.2
2017-07-14T19:52:18.517Z,14.1
2017-07-14T19:53:20.158Z,14.2
2017-07-14T19:54:21.920Z,14.2
2017-07-14T19:55:23.550Z,14.2
2017-07-14T19:56:25.715Z,14.2
2017-07-14T19:57:27.762Z,14.2
2017-07-14T19:58:30.187Z,14.2
2017-07-14T19:59:32.322Z,14.2
2017-07-14T20:00:34.027Z,14.2
2017-07-14T20:01:35.686Z,14.2
2017-07-14T20:02:37.738Z,14.2
2017-07-14T20:03:40.662Z,14.3
2017-07-14T20:04:43.888Z,14.2
2017-07-14T20:05:46.270Z,14.2
2017-07-14T20:06:47.918Z,14.2
2017-07-14T20:07:50.031Z,14.3
2017-07-14T20:08:52.073Z,14.3
2017-07-14T20:09:54.651Z,14.4
2017-07-14T20:10:56.357Z,14.3
2017-07-14T20:11:58.064Z,14.3
2017-07-14T20:12:59.715Z,14.3
2017-07-14T20:14:01.551Z,14.4
2017-07-14T20:15:03.638Z,14.4
2017-07-14T20:16:05.312Z,14.3
2017-07-14T20:17:07.012Z,14.3
2017-07-14T20:18:08.656Z,14.3
2017-07-14T20:19:10.406Z,14.4
2017-07-14T20:20:12.073Z,14.4
2017-07-14T20:21:14.816Z,14.3
2017-07-14T20:22:16.469Z,14.3
2017-07-14T20:23:19.234Z,14.4
2017-07-14T20:24:20.876Z,14.3
2017-07-14T20:25:22.629Z,14.3
2017-07-14T20:26:24.664Z,14.4
2017-07-14T20:27:27.497Z,14.3
2017-07-14T20:28:29.201Z,14.4
2017-07-14T20:29:31.234Z,14.4
2017-07-14T20:30:34.321Z,14.4
2017-07-14T20:31:35.971Z,14.4
2017-07-14T20:32:37.726Z,14.4
2017-07-14T20:33:39.376Z,14.4
2017-07-14T20:34:41.123Z,14.4
2017-07-14T20:35:42.772Z,14.4
2017-07-14T20:36:44.512Z,14.4
